NCAR-RAP Real-Time Weather Data

Output produced by METARs form (12 August 2020  18:59 UTC)
found at http://weather.rap.ucar.edu/surface/
 
KFLG 121757Z 24014G19KT 10SM CLR 27/03 A3036 RMK AO2 SLP158 T02670033 10267 20106 50003
KFLG 121657Z VRB06KT 10SM CLR 25/05 A3037 RMK AO2 SLP161 T02500050
KFLG 121557Z 25005KT 10SM CLR 24/06 A3035 RMK AO2 SLP159 T02390056
KFLG 121457Z VRB05KT 10SM CLR 22/08 A3035 RMK AO2 SLP154 T02170078 51008
KFLG 121357Z 00000KT 10SM CLR 15/07 A3034 RMK AO2 SLP166 T01500072
KFLG 121257Z 00000KT 10SM CLR 11/05 A3033 RMK AO2 SLP168 T01110050
KFLG 121157Z AUTO 00000KT 10SM CLR 12/06 A3031 RMK AO2 SLP157 T01170056 10189 20117 50002 TSNO
KFLG 121057Z AUTO 00000KT 10SM CLR 13/06 A3032 RMK AO2 SLP154 T01280056 TSNO
KFLG 120957Z AUTO 00000KT 10SM CLR 14/05 A3031 RMK AO2 SLP153 T01390050 TSNO
KFLG 120857Z AUTO 00000KT 10SM CLR 16/05 A3031 RMK AO2 SLP146 T01610050 56001
KFLG 120757Z AUTO 26003KT 10SM CLR 18/05 A3031 RMK AO2 SLP141 T01830050
KFLG 120657Z AUTO 26003KT 10SM CLR 18/04 A3030 RMK AO2 SLP137 T01830044 402830139
KFLG 120557Z AUTO 00000KT 10SM CLR 19/04 A3031 RMK AO2 SLP142 T01890044 10272 20189 50009
KFLG 120457Z AUTO 26004KT 10SM CLR 21/04 A3031 RMK AO2 SLP139 T02060039
KFLG 120357Z 22004KT 10SM CLR 20/04 A3030 RMK AO2 SLP142 T02000039
KFLG 120257Z 25007KT 10SM CLR 23/03 A3028 RMK AO2 SLP131 T02330033 53004
KFLG 120157Z 25008KT 10SM CLR 25/04 A3026 RMK AO2 SLP129 T02500039
KFLG 120057Z 23014G17KT 10SM SCT095 26/03 A3025 RMK AO2 SLP129 T02610033